Jersey City, NJ (07302)

9:40 AM EDT on August 27, 2014 (GMT -0400)
Cobble Hill | Change Station
CLOSE
Current Station
Personal Weather Station
Location: New York, NY
Elevation: 66 ft
Nearby Weather Stations

Elev 66 ft 40.69 °N, 74.00 °W | Updated 18 seconds ago

Clear
Clear
77.7 °F
Feels Like 80 °F
N
0.7
Wind Variable Wind from East
Gusts 2.2 mph

Today
High -- | Low -- °F
--% Chance of Precip.
Yesterday
High -- | Low -- °F
Precip. -- in
6:18 AM 7:36 PM
Waxing Crescent, 4% visible
Pressure 30.04 in
Visibility 10.0 miles
Clouds Clear
Heat Index 80 °F
Dew Point 67 °F
Humidity 69%
Rainfall 0.00 in
Snow Depth Not available.
UV 3 out of 12
Pollen 10.00 out of 12
PM2.5 Good
Flu Activity Not available.
METAR KNYC 271251Z AUTO 00000KT 10SM CLR 24/17 A3007 RMK AO2 SLP172 T02440167

More Conditions Fewer Conditions

Pressure 30.04 in
Visibility 10.0 miles
Clouds Clear
Heat Index 80 °F
Dew Point 67 °F
Humidity 69%
Rainfall 0.00 in
Snow Depth Not available.
UV 3 out of 12
Pollen 10.00 out of 12
PM2.5 Good
Flu Activity Not available.
METAR KNYC 271251Z AUTO 00000KT 10SM CLR 24/17 A3007 RMK AO2 SLP172 T02440167

More Conditions Fewer Conditions

10-Day Weather Forecast

Almanac

Astronomy

Aug. 27, 2014 Rise Set
Actual Time 6:18 AM EDT 7:36 PM EDT
Civil Twilight 5:49 AM EDT 8:04 PM EDT
Nautical Twilight 5:15 AM EDT 8:38 PM EDT
Astronomical Twilight 4:39 AM EDT 9:14 PM EDT
Moon 8:12 AM EDT 8:26 PM EDT
Length of Visible Light 14h 14m
Length of Day
13h 18m
Tomorrow will be 2m 33s shorter.
Waxing Crescent, 4% of the Moon is Illuminated
Today
Waxing Crescent
Sep 2
First Quarter
Sep 8
Full
Sep 15
Last Quarter
Sep 24
New

Today's Extremes

State Highs State Lows

Community

WunderPhotos

Upload Photos

1,747,684 photos uploaded!

Nearby

Air Quality

  Air Quality AQ Index Pollutant
Yesterday Good
OZONE
Yesterday Good
PM2.5
Current Good
PM2.5
Wednesday Moderate
OZONE
Wednesday Moderate
PM2.5

Snow Depth

Station Depth Elevation
No new snow has been reported.

Earthquake Activity

City Distance Mag. Time & Date
No recent earthquake activity has been reported nearby.
Minimum magnitude displayed is 2.5.

Coastal Water Temperatures

Place Temperature
Sandy Hook, NJ 75.0 °F
The Battery, NY 73.9 °F
Bergen Point West Reach, NJ 73.9 °F
Kings Point, NY 73.0 °F

Nearby Weather Stations